Here is the Quick Look data you requested

The Data originates at the National Weather Service, and is made available here by the UAlbany Department of Atmospheric and Environmental Sciences

Surface Observations

KCVG 181352Z 11008KT 10SM BKN080 06/M02 A2984 RMK AO2 SLP107 T00611017=
KCVG 181452Z 13010KT 10SM FEW080 09/00 A2980 RMK AO2 SLP090 T00890000 58022=
KCVG 181552Z 14010KT 10SM CLR 11/02 A2976 RMK AO2 SLP079 T01110017=
KCVG 181652Z 18006KT 10SM CLR 14/04 A2975 RMK AO2 SLP073 T01390039=
KCVG 181752Z 18008KT 10SM CLR 17/06 A2972 RMK AO2 SLP062 T01670061 10167 20033
 56025=
KCVG 181852Z 20010G19KT 10SM FEW045 19/08 A2969 RMK AO2 SLP050 T01890078=
KCVG 181952Z 20009KT 170V240 10SM BKN050 22/11 A2966 RMK AO2 SLP039 T02170106=
KCVG 182052Z 22007KT 10SM OVC050 22/11 A2964 RMK AO2 SLP034 BINOVC OHD
 T02170106 56026=
KCVG 182152Z 22004KT 10SM BKN050 OVC065 22/11 A2962 RMK AO2 SLP028 BINOVC
 T02220111=
KCVG 182252Z 20008KT 10SM SCT055TCU BKN075 BKN120 22/12 A2960 RMK AO2 SLP018
 TCU NE MDT CU SE VCSH NE T02220122=
KCVG 182343Z 25018G23KT 2SM +RA FEW025 BKN050 OVC070 20/13 A2962 RMK AO2 RAB32
 PRESRR P0002 T02000133=
KCVG 182347Z 28013G25KT 1 1/4SM +RA FEW022 BKN050 OVC075 18/14 A2963 RMK AO2
 RAB32 PRESRR P0015=
KCVG 182352Z 27014G25KT 6SM -RA FEW022 BKN038 OVC075 18/14 A2963 RMK AO2 RAB32
 SLP030 VIS LWR NE-SE P0024 60024 T01780139 10233 20167 55004=
KCVG 190052Z 31024G30KT 9SM -RA FEW041 OVC060 16/10 A2968 RMK AO2 PK WND
 30031/0036 SLP049 P0003 T01560100=
KCVG 190152Z 31023G31KT 10SM BKN075 OVC090 13/06 A2976 RMK AO2 PK WND
 30033/0138 RAE11 SLP076 BINOVC OHD P0000 T01280061=
KCVG 190252Z 30019G31KT 10SM SCT095 10/02 A2980 RMK AO2 PK WND 30033/0157
 SLP091 60003 T01000022 51058=
KCVG 190352Z 31015G24KT 10SM FEW035 SCT090 08/02 A2984 RMK AO2 PK WND
 32033/0328 SLP105 T00780017=
KCVG 190452Z 30013KT 10SM OVC033 07/01 A2986 RMK AO2 SLP108 T00720011 402330022=
KCVG 190532Z 31012G22KT 10SM OVC028 07/02 A2987 RMK AO2 T00720017=
KCVG 190552Z 29018G27KT 10SM OVC028 07/00 A2989 RMK AO2 PK WND 28027/0546
 SLP117 60003 T00670000 10178 20067 51027=
KCVG 190652Z 30018G24KT 10SM OVC028 05/M01 A2990 RMK AO2 PK WND 30028/0600
 SLP121 T00501011=
KCVG 190752Z 29015KT 10SM SCT026 OVC034 04/M02 A2991 RMK AO2 CIG 028 36R SLP125
 T00441017=
KCVG 190852Z 29014G20KT 10SM OVC031 04/M02 A2993 RMK AO2 SLP132 T00391022 53015=
KCVG 190942Z 29014KT 10SM BKN029 OVC038 04/M02 A2995 RMK AO2 T00391022=
KCVG 190952Z 28016G23KT 10SM BKN027 OVC039 04/M02 A2996 RMK AO2 SLP140
 T00391017=
KCVG 191023Z 29021G28KT 10SM SCT028 BKN036 OVC046 03/M03 A2998 RMK AO2 PK WND
 30028/1023 T00331028=
KCVG 191052Z 30015G23KT 10SM BKN037 OVC044 03/M02 A3000 RMK AO2 PK WND
 30028/1023 SLP158 T00331022=
KCVG 191108Z 28020G26KT 10SM BKN025 BKN035 OVC045 03/M03 A3002 RMK AO2 PK WND
 29026/1102 T00281028=
KCVG 191152Z 30016KT 10SM BKN023 OVC030 03/M02 A3005 RMK AO2 PK WND 29026/1102
 SLP175 70027 T00281017 10061 20028 53041=
KCVG 191252Z 29016KT 10SM OVC020 03/M01 A3008 RMK AO2 SLP187 T00281011=
KCVG 191352Z 31012KT 10SM OVC022 03/M01 A3012 RMK AO2 SLP199 T00331006=
KCVG 191452Z 31010KT 10SM BKN018 OVC024 04/M01 A3017 RMK AO2 SLP217 T00391006
 53038=
KCVG 191552Z 31011KT 10SM BKN019 BKN026 OVC033 05/00 A3021 RMK AO2 SLP229
 BINOVC T00500000=
KCVG 191652Z 30010KT 10SM SCT022 BKN029 OVC035 06/00 A3023 RMK AO2 SLP238
 BINOVC T00560000=
KCVG 191722Z 31013KT 10SM BKN034 OVC041 07/M01 A3024 RMK AO2 BINOVC T00671011=
KCVG 191752Z 34011G17KT 10SM BKN039 08/M02 A3025 RMK AO2 SLP246 BINOVC
 T00781017 10083 20028 51029=
KCVG 191852Z 01011G18KT 10SM BKN042 09/M01 A3026 RMK AO2 SLP249 T00941011=
KCVG 191952Z 35011KT 10SM FEW046 SCT250 11/M01 A3026 RMK AO2 SLP249 T01061011=
KCVG 192052Z 33009KT 10SM FEW050 SCT250 11/M02 A3026 RMK AO2 SLP248 T01111022
 50001=
KCVG 192152Z 31011KT 10SM FEW050 FEW250 12/M03 A3026 RMK AO2 SLP248 T01221028=
KCVG 192252Z 34010KT 10SM CLR 12/M04 A3027 RMK AO2 SLP253 T01221039=
KCVG 192352Z 32011KT 10SM CLR 11/M03 A3027 RMK AO2 SLP252 T01111033 10122 20078
 50004=
KCVG 200052Z 29006KT 10SM CLR 09/M03 A3028 RMK AO2 SLP257 T00891028=
KCVG 200152Z 30007KT 10SM CLR 07/M02 A3030 RMK AO2 SLP264 T00721022=